sensor_id;sensor_type;location;lat;lon;timestamp;temperature;humidity
3684;DHT22;1858;48.716;9.648;2022-09-19T00:00:13;10.60;99.90
3684;DHT22;1858;48.716;9.648;2022-09-19T00:03:21;10.70;99.90
3684;DHT22;1858;48.716;9.648;2022-09-19T00:05:50;10.60;99.90
3684;DHT22;1858;48.716;9.648;2022-09-19T00:08:39;10.60;99.90
3684;DHT22;1858;48.716;9.648;2022-09-19T00:11:09;10.60;99.90
3684;DHT22;1858;48.716;9.648;2022-09-19T00:13:58;10.60;99.90
3684;DHT22;1858;48.716;9.648;2022-09-19T00:16:31;10.50;69.30
3684;DHT22;1858;48.716;9.648;2022-09-19T00:19:00;10.40;5.10
3684;DHT22;1858;48.716;9.648;2022-09-19T00:21:34;10.30;99.70
3684;DHT22;1858;48.716;9.648;2022-09-19T00:24:03;10.40;99.90
3684;DHT22;1858;48.716;9.648;2022-09-19T00:27:09;10.40;99.90
3684;DHT22;1858;48.716;9.648;2022-09-19T00:29:40;10.50;99.90
3684;DHT22;1858;48.716;9.648;2022-09-19T00:32:12;10.50;81.70
3684;DHT22;1858;48.716;9.648;2022-09-19T00:37:30;10.40;99.90
3684;DHT22;1858;48.716;9.648;2022-09-19T00:39:58;10.40;99.90
3684;DHT22;1858;48.716;9.648;2022-09-19T00:42:26;10.50;99.90
3684;DHT22;1858;48.716;9.648;2022-09-19T00:47:50;10.30;99.90
3684;DHT22;1858;48.716;9.648;2022-09-19T00:50:39;10.20;99.90
3684;DHT22;1858;48.716;9.648;2022-09-19T00:53:27;10.10;99.90
3684;DHT22;1858;48.716;9.648;2022-09-19T00:55:57;10.10;99.90
3684;DHT22;1858;48.716;9.648;2022-09-19T00:58:33;10.00;99.90
3684;DHT22;1858;48.716;9.648;2022-09-19T01:01:22;9.90;99.90
3684;DHT22;1858;48.716;9.648;2022-09-19T01:03:52;9.80;99.90
3684;DHT22;1858;48.716;9.648;2022-09-19T01:06:38;9.80;99.90
3684;DHT22;1858;48.716;9.648;2022-09-19T01:15:20;9.70;99.90
3684;DHT22;1858;48.716;9.648;2022-09-19T01:18:08;9.70;99.90
3684;DHT22;1858;48.716;9.648;2022-09-19T01:29:14;9.40;1.00
3684;DHT22;1858;48.716;9.648;2022-09-19T01:31:45;9.30;1.00
3684;DHT22;1858;48.716;9.648;2022-09-19T01:34:22;9.30;1.00
3684;DHT22;1858;48.716;9.648;2022-09-19T01:39:49;9.20;1.00
3684;DHT22;1858;48.716;9.648;2022-09-19T01:42:20;9.20;1.00
3684;DHT22;1858;48.716;9.648;2022-09-19T01:44:49;9.10;1.00
3684;DHT22;1858;48.716;9.648;2022-09-19T01:47:50;9.00;1.00
3684;DHT22;1858;48.716;9.648;2022-09-19T01:53:20;8.90;1.00
3684;DHT22;1858;48.716;9.648;2022-09-19T01:55:53;8.80;1.00
3684;DHT22;1858;48.716;9.648;2022-09-19T02:04:23;8.70;1.00
3684;DHT22;1858;48.716;9.648;2022-09-19T02:07:26;8.80;1.00
3684;DHT22;1858;48.716;9.648;2022-09-19T02:10:21;8.70;1.00
3684;DHT22;1858;48.716;9.648;2022-09-19T02:12:53;8.60;1.00
3684;DHT22;1858;48.716;9.648;2022-09-19T02:15:25;8.60;1.00
3684;DHT22;1858;48.716;9.648;2022-09-19T02:18:05;8.60;1.00
3684;DHT22;1858;48.716;9.648;2022-09-19T02:20:34;8.50;1.00
3684;DHT22;1858;48.716;9.648;2022-09-19T02:23:11;8.60;1.00
3684;DHT22;1858;48.716;9.648;2022-09-19T02:25:59;8.60;1.00
3684;DHT22;1858;48.716;9.648;2022-09-19T02:28:38;8.60;1.00
3684;DHT22;1858;48.716;9.648;2022-09-19T02:31:02;8.50;1.00
3684;DHT22;1858;48.716;9.648;2022-09-19T02:33:33;8.40;9.30
3684;DHT22;1858;48.716;9.648;2022-09-19T02:39:13;8.30;48.00
3684;DHT22;1858;48.716;9.648;2022-09-19T02:41:40;8.30;99.90
3684;DHT22;1858;48.716;9.648;2022-09-19T02:44:17;8.30;99.90
3684;DHT22;1858;48.716;9.648;2022-09-19T02:47:20;8.20;99.90
3684;DHT22;1858;48.716;9.648;2022-09-19T02:52:45;8.20;99.90
3684;DHT22;1858;48.716;9.648;2022-09-19T02:55:25;8.20;99.90
3684;DHT22;1858;48.716;9.648;2022-09-19T02:58:13;8.10;99.90
3684;DHT22;1858;48.716;9.648;2022-09-19T03:00:51;8.20;99.90
3684;DHT22;1858;48.716;9.648;2022-09-19T03:03:42;8.20;99.90
3684;DHT22;1858;48.716;9.648;2022-09-19T03:09:27;8.30;99.90
3684;DHT22;1858;48.716;9.648;2022-09-19T03:12:02;8.40;99.90
3684;DHT22;1858;48.716;9.648;2022-09-19T03:14:30;8.40;99.90
3684;DHT22;1858;48.716;9.648;2022-09-19T03:17:00;8.30;99.90
3684;DHT22;1858;48.716;9.648;2022-09-19T03:19:30;8.20;99.90
3684;DHT22;1858;48.716;9.648;2022-09-19T03:22:00;8.20;99.90
3684;DHT22;1858;48.716;9.648;2022-09-19T03:24:28;8.10;99.90
3684;DHT22;1858;48.716;9.648;2022-09-19T03:27:00;8.20;99.90
3684;DHT22;1858;48.716;9.648;2022-09-19T03:29:28;8.20;99.90
3684;DHT22;1858;48.716;9.648;2022-09-19T03:31:57;8.10;99.90
3684;DHT22;1858;48.716;9.648;2022-09-19T03:34:25;8.20;99.90
3684;DHT22;1858;48.716;9.648;2022-09-19T03:36:54;8.30;99.90
3684;DHT22;1858;48.716;9.648;2022-09-19T03:39:22;8.40;99.90
3684;DHT22;1858;48.716;9.648;2022-09-19T03:41:51;8.50;99.90
3684;DHT22;1858;48.716;9.648;2022-09-19T03:44:20;8.50;99.90
3684;DHT22;1858;48.716;9.648;2022-09-19T03:47:08;8.60;99.90
3684;DHT22;1858;48.716;9.648;2022-09-19T03:49:37;8.70;99.90
3684;DHT22;1858;48.716;9.648;2022-09-19T03:52:05;8.70;46.10
3684;DHT22;1858;48.716;9.648;2022-09-19T03:54:33;8.70;63.50
3684;DHT22;1858;48.716;9.648;2022-09-19T04:00:11;8.60;1.00
3684;DHT22;1858;48.716;9.648;2022-09-19T04:02:40;8.60;1.00
3684;DHT22;1858;48.716;9.648;2022-09-19T04:05:09;8.60;1.00
3684;DHT22;1858;48.716;9.648;2022-09-19T04:07:39;8.70;1.00
3684;DHT22;1858;48.716;9.648;2022-09-19T04:10:07;8.70;1.00
3684;DHT22;1858;48.716;9.648;2022-09-19T04:12:36;8.70;7.70
3684;DHT22;1858;48.716;9.648;2022-09-19T04:15:08;8.80;1.00
3684;DHT22;1858;48.716;9.648;2022-09-19T04:17:56;8.80;1.00
3684;DHT22;1858;48.716;9.648;2022-09-19T04:20:24;8.80;1.00
3684;DHT22;1858;48.716;9.648;2022-09-19T04:23:14;8.80;1.00
3684;DHT22;1858;48.716;9.648;2022-09-19T04:25:44;8.90;1.00
3684;DHT22;1858;48.716;9.648;2022-09-19T04:28:33;8.90;1.00
3684;DHT22;1858;48.716;9.648;2022-09-19T04:31:03;8.90;1.00
3684;DHT22;1858;48.716;9.648;2022-09-19T04:33:32;8.90;1.00
3684;DHT22;1858;48.716;9.648;2022-09-19T04:36:02;8.80;1.00
3684;DHT22;1858;48.716;9.648;2022-09-19T04:38:34;8.80;1.00
3684;DHT22;1858;48.716;9.648;2022-09-19T04:41:04;8.90;1.00
3684;DHT22;1858;48.716;9.648;2022-09-19T04:43:33;8.80;1.00
3684;DHT22;1858;48.716;9.648;2022-09-19T04:46:22;8.90;1.00
3684;DHT22;1858;48.716;9.648;2022-09-19T04:49:10;9.00;1.00
3684;DHT22;1858;48.716;9.648;2022-09-19T04:51:40;9.00;1.00
3684;DHT22;1858;48.716;9.648;2022-09-19T04:54:09;9.10;1.00
3684;DHT22;1858;48.716;9.648;2022-09-19T04:56:38;9.10;1.00
3684;DHT22;1858;48.716;9.648;2022-09-19T04:59:06;9.20;1.00
3684;DHT22;1858;48.716;9.648;2022-09-19T05:01:35;9.20;1.00
3684;DHT22;1858;48.716;9.648;2022-09-19T05:04:04;9.20;1.00
3684;DHT22;1858;48.716;9.648;2022-09-19T05:06:32;9.30;99.90
3684;DHT22;1858;48.716;9.648;2022-09-19T05:09:00;9.20;99.90
3684;DHT22;1858;48.716;9.648;2022-09-19T05:11:29;9.20;99.90
3684;DHT22;1858;48.716;9.648;2022-09-19T05:13:58;9.30;99.90
3684;DHT22;1858;48.716;9.648;2022-09-19T05:16:28;9.30;99.90
3684;DHT22;1858;48.716;9.648;2022-09-19T05:18:56;9.30;99.90
3684;DHT22;1858;48.716;9.648;2022-09-19T05:21:24;9.30;99.90
3684;DHT22;1858;48.716;9.648;2022-09-19T05:26:43;9.40;99.90
3684;DHT22;1858;48.716;9.648;2022-09-19T05:29:13;9.40;99.90
3684;DHT22;1858;48.716;9.648;2022-09-19T05:31:42;9.40;99.90
3684;DHT22;1858;48.716;9.648;2022-09-19T05:34:13;9.40;99.90
3684;DHT22;1858;48.716;9.648;2022-09-19T05:36:41;9.50;99.90
3684;DHT22;1858;48.716;9.648;2022-09-19T05:39:10;9.50;99.90
3684;DHT22;1858;48.716;9.648;2022-09-19T05:41:41;9.50;99.90
3684;DHT22;1858;48.716;9.648;2022-09-19T05:44:11;9.60;99.90
3684;DHT22;1858;48.716;9.648;2022-09-19T05:46:42;9.60;99.90
3684;DHT22;1858;48.716;9.648;2022-09-19T05:49:11;9.50;99.90
3684;DHT22;1858;48.716;9.648;2022-09-19T05:51:39;9.60;99.90
3684;DHT22;1858;48.716;9.648;2022-09-19T05:54:27;9.70;99.90
3684;DHT22;1858;48.716;9.648;2022-09-19T05:56:55;9.60;99.90
3684;DHT22;1858;48.716;9.648;2022-09-19T05:59:25;9.60;99.90
3684;DHT22;1858;48.716;9.648;2022-09-19T06:01:53;9.60;99.90
3684;DHT22;1858;48.716;9.648;2022-09-19T06:04:22;9.60;99.90
3684;DHT22;1858;48.716;9.648;2022-09-19T06:06:52;9.70;99.90
3684;DHT22;1858;48.716;9.648;2022-09-19T06:09:20;9.80;99.90
3684;DHT22;1858;48.716;9.648;2022-09-19T06:11:49;9.80;99.90
3684;DHT22;1858;48.716;9.648;2022-09-19T06:14:17;9.80;99.90
3684;DHT22;1858;48.716;9.648;2022-09-19T06:16:47;9.90;99.90
3684;DHT22;1858;48.716;9.648;2022-09-19T06:19:16;9.90;99.90
3684;DHT22;1858;48.716;9.648;2022-09-19T06:21:44;10.00;99.90
3684;DHT22;1858;48.716;9.648;2022-09-19T06:24:13;10.00;99.90
3684;DHT22;1858;48.716;9.648;2022-09-19T06:26:41;10.10;99.90
3684;DHT22;1858;48.716;9.648;2022-09-19T06:29:10;10.10;99.90
3684;DHT22;1858;48.716;9.648;2022-09-19T06:31:38;10.20;99.90
3684;DHT22;1858;48.716;9.648;2022-09-19T06:34:07;10.30;99.90
3684;DHT22;1858;48.716;9.648;2022-09-19T06:36:55;10.30;99.90
3684;DHT22;1858;48.716;9.648;2022-09-19T06:39:24;10.30;36.90
3684;DHT22;1858;48.716;9.648;2022-09-19T06:41:55;10.40;18.10
3684;DHT22;1858;48.716;9.648;2022-09-19T06:44:23;10.50;35.40
3684;DHT22;1858;48.716;9.648;2022-09-19T06:46:52;10.50;21.00
3684;DHT22;1858;48.716;9.648;2022-09-19T06:49:21;10.60;1.00
3684;DHT22;1858;48.716;9.648;2022-09-19T06:51:50;10.60;1.00
3684;DHT22;1858;48.716;9.648;2022-09-19T06:54:19;10.70;1.00
3684;DHT22;1858;48.716;9.648;2022-09-19T06:56:49;10.70;1.00
3684;DHT22;1858;48.716;9.648;2022-09-19T06:59:19;10.80;1.00
3684;DHT22;1858;48.716;9.648;2022-09-19T07:01:49;10.70;1.00
3684;DHT22;1858;48.716;9.648;2022-09-19T07:04:18;10.80;1.00
3684;DHT22;1858;48.716;9.648;2022-09-19T07:06:47;10.80;1.00
3684;DHT22;1858;48.716;9.648;2022-09-19T07:09:15;10.90;1.00
3684;DHT22;1858;48.716;9.648;2022-09-19T07:11:43;10.90;1.00
3684;DHT22;1858;48.716;9.648;2022-09-19T07:14:13;10.90;1.00
3684;DHT22;1858;48.716;9.648;2022-09-19T07:16:41;11.00;1.00
3684;DHT22;1858;48.716;9.648;2022-09-19T07:19:10;11.10;1.00
3684;DHT22;1858;48.716;9.648;2022-09-19T07:24:27;11.30;1.00
3684;DHT22;1858;48.716;9.648;2022-09-19T07:26:56;11.40;1.00
3684;DHT22;1858;48.716;9.648;2022-09-19T07:29:24;11.40;1.00
3684;DHT22;1858;48.716;9.648;2022-09-19T07:31:53;11.30;1.00
3684;DHT22;1858;48.716;9.648;2022-09-19T07:34:21;11.40;1.00
3684;DHT22;1858;48.716;9.648;2022-09-19T07:36:49;11.50;1.00
3684;DHT22;1858;48.716;9.648;2022-09-19T07:39:18;11.70;1.00
3684;DHT22;1858;48.716;9.648;2022-09-19T07:41:47;11.60;1.00
3684;DHT22;1858;48.716;9.648;2022-09-19T07:44:15;11.70;1.00
3684;DHT22;1858;48.716;9.648;2022-09-19T07:46:43;11.70;1.00
3684;DHT22;1858;48.716;9.648;2022-09-19T07:49:13;11.70;1.00
3684;DHT22;1858;48.716;9.648;2022-09-19T07:51:42;11.80;1.00
3684;DHT22;1858;48.716;9.648;2022-09-19T07:54:11;11.90;1.00
3684;DHT22;1858;48.716;9.648;2022-09-19T07:56:39;11.80;1.00
3684;DHT22;1858;48.716;9.648;2022-09-19T07:59:07;11.80;1.00
3684;DHT22;1858;48.716;9.648;2022-09-19T08:01:36;11.80;1.00
3684;DHT22;1858;48.716;9.648;2022-09-19T08:06:32;12.00;1.00
3684;DHT22;1858;48.716;9.648;2022-09-19T08:09:01;12.10;1.00
3684;DHT22;1858;48.716;9.648;2022-09-19T08:11:29;12.20;1.00
3684;DHT22;1858;48.716;9.648;2022-09-19T08:13:57;12.30;99.90
3684;DHT22;1858;48.716;9.648;2022-09-19T08:16:27;12.40;99.90
3684;DHT22;1858;48.716;9.648;2022-09-19T08:18:55;12.50;99.90
3684;DHT22;1858;48.716;9.648;2022-09-19T08:21:24;12.60;99.90
3684;DHT22;1858;48.716;9.648;2022-09-19T08:23:53;12.60;99.90
3684;DHT22;1858;48.716;9.648;2022-09-19T08:26:21;12.70;99.90
3684;DHT22;1858;48.716;9.648;2022-09-19T08:28:51;12.70;99.90
3684;DHT22;1858;48.716;9.648;2022-09-19T08:31:33;12.80;99.90
3684;DHT22;1858;48.716;9.648;2022-09-19T08:34:05;12.90;99.90
3684;DHT22;1858;48.716;9.648;2022-09-19T08:36:35;12.90;99.90
3684;DHT22;1858;48.716;9.648;2022-09-19T08:39:09;12.90;99.90
3684;DHT22;1858;48.716;9.648;2022-09-19T08:42:00;12.90;99.90
3684;DHT22;1858;48.716;9.648;2022-09-19T08:46:23;13.00;99.90
3684;DHT22;1858;48.716;9.648;2022-09-19T08:49:57;13.20;99.90
3684;DHT22;1858;48.716;9.648;2022-09-19T08:52:45;13.30;99.90
3684;DHT22;1858;48.716;9.648;2022-09-19T08:55:20;13.20;99.90
3684;DHT22;1858;48.716;9.648;2022-09-19T09:00:46;13.00;99.90
3684;DHT22;1858;48.716;9.648;2022-09-19T09:03:29;13.00;99.90
3684;DHT22;1858;48.716;9.648;2022-09-19T09:11:38;13.20;99.90
3684;DHT22;1858;48.716;9.648;2022-09-19T09:17:36;13.50;99.90
3684;DHT22;1858;48.716;9.648;2022-09-19T09:23:02;13.50;99.90
3684;DHT22;1858;48.716;9.648;2022-09-19T09:25:31;13.60;99.90
3684;DHT22;1858;48.716;9.648;2022-09-19T09:28:11;13.60;99.90
3684;DHT22;1858;48.716;9.648;2022-09-19T09:30:40;13.70;99.90
3684;DHT22;1858;48.716;9.648;2022-09-19T09:33:21;13.70;99.90
3684;DHT22;1858;48.716;9.648;2022-09-19T09:36:10;13.80;99.90
3684;DHT22;1858;48.716;9.648;2022-09-19T09:38:47;14.00;99.90
3684;DHT22;1858;48.716;9.648;2022-09-19T09:41:20;14.00;99.90
3684;DHT22;1858;48.716;9.648;2022-09-19T09:47:18;14.40;99.90
3684;DHT22;1858;48.716;9.648;2022-09-19T09:50:16;14.50;99.90
3684;DHT22;1858;48.716;9.648;2022-09-19T10:01:51;14.50;71.70
3684;DHT22;1858;48.716;9.648;2022-09-19T10:04:46;14.30;64.30
3684;DHT22;1858;48.716;9.648;2022-09-19T10:07:36;14.10;81.00
3684;DHT22;1858;48.716;9.648;2022-09-19T10:10:12;14.00;99.90
3684;DHT22;1858;48.716;9.648;2022-09-19T10:15:37;14.10;99.90
3684;DHT22;1858;48.716;9.648;2022-09-19T10:18:15;14.50;99.90
3684;DHT22;1858;48.716;9.648;2022-09-19T10:20:48;15.10;99.90
3684;DHT22;1858;48.716;9.648;2022-09-19T10:23:25;15.60;50.00
3684;DHT22;1858;48.716;9.648;2022-09-19T10:26:16;15.70;3.60
3684;DHT22;1858;48.716;9.648;2022-09-19T10:28:50;15.60;1.00
3684;DHT22;1858;48.716;9.648;2022-09-19T10:31:32;15.50;1.00
3684;DHT22;1858;48.716;9.648;2022-09-19T10:34:02;15.30;1.00
3684;DHT22;1858;48.716;9.648;2022-09-19T10:36:43;15.10;1.00
3684;DHT22;1858;48.716;9.648;2022-09-19T10:39:22;15.20;1.00
3684;DHT22;1858;48.716;9.648;2022-09-19T10:42:00;15.20;1.00
3684;DHT22;1858;48.716;9.648;2022-09-19T10:44:29;15.30;1.00
3684;DHT22;1858;48.716;9.648;2022-09-19T10:47:00;15.40;1.00
3684;DHT22;1858;48.716;9.648;2022-09-19T10:49:42;15.60;1.00
3684;DHT22;1858;48.716;9.648;2022-09-19T10:52:08;15.80;1.00
3684;DHT22;1858;48.716;9.648;2022-09-19T10:54:43;15.90;1.00
3684;DHT22;1858;48.716;9.648;2022-09-19T10:57:43;16.10;1.00
3684;DHT22;1858;48.716;9.648;2022-09-19T11:00:27;16.30;1.00
3684;DHT22;1858;48.716;9.648;2022-09-19T11:03:05;16.60;1.00
3684;DHT22;1858;48.716;9.648;2022-09-19T11:05:33;16.80;1.00
3684;DHT22;1858;48.716;9.648;2022-09-19T11:08:03;17.10;1.00
3684;DHT22;1858;48.716;9.648;2022-09-19T11:10:43;17.30;1.00
3684;DHT22;1858;48.716;9.648;2022-09-19T11:13:14;17.60;1.00
3684;DHT22;1858;48.716;9.648;2022-09-19T11:19:30;18.00;1.00
3684;DHT22;1858;48.716;9.648;2022-09-19T11:22:16;18.10;1.00
3684;DHT22;1858;48.716;9.648;2022-09-19T11:30:44;18.20;1.00
3684;DHT22;1858;48.716;9.648;2022-09-19T11:33:23;18.20;1.00
3684;DHT22;1858;48.716;9.648;2022-09-19T11:36:00;18.20;1.00
3684;DHT22;1858;48.716;9.648;2022-09-19T11:47:25;18.00;1.00
3684;DHT22;1858;48.716;9.648;2022-09-19T11:53:04;18.20;1.00
3684;DHT22;1858;48.716;9.648;2022-09-19T11:59:13;18.00;1.00
3684;DHT22;1858;48.716;9.648;2022-09-19T12:07:47;17.10;1.00
3684;DHT22;1858;48.716;9.648;2022-09-19T12:10:39;16.90;1.00
3684;DHT22;1858;48.716;9.648;2022-09-19T12:13:30;16.70;1.00
3684;DHT22;1858;48.716;9.648;2022-09-19T12:18:49;16.20;1.00
3684;DHT22;1858;48.716;9.648;2022-09-19T12:21:21;16.10;1.00
3684;DHT22;1858;48.716;9.648;2022-09-19T12:23:54;16.00;1.00
3684;DHT22;1858;48.716;9.648;2022-09-19T12:27:04;16.00;1.00
3684;DHT22;1858;48.716;9.648;2022-09-19T12:35:27;16.40;1.00
3684;DHT22;1858;48.716;9.648;2022-09-19T12:41:03;16.60;1.00
3684;DHT22;1858;48.716;9.648;2022-09-19T12:43:59;16.80;1.00
3684;DHT22;1858;48.716;9.648;2022-09-19T12:47:19;17.00;1.00
3684;DHT22;1858;48.716;9.648;2022-09-19T12:52:20;17.10;1.00
3684;DHT22;1858;48.716;9.648;2022-09-19T13:00:43;17.60;1.00
3684;DHT22;1858;48.716;9.648;2022-09-19T13:03:30;17.40;1.00
3684;DHT22;1858;48.716;9.648;2022-09-19T13:06:03;17.60;1.00
3684;DHT22;1858;48.716;9.648;2022-09-19T13:08:45;17.70;1.00
3684;DHT22;1858;48.716;9.648;2022-09-19T13:14:32;17.60;1.00
3684;DHT22;1858;48.716;9.648;2022-09-19T13:16:59;17.60;1.00
3684;DHT22;1858;48.716;9.648;2022-09-19T13:19:47;17.50;1.00
3684;DHT22;1858;48.716;9.648;2022-09-19T13:22:53;17.40;1.00
3684;DHT22;1858;48.716;9.648;2022-09-19T13:25:45;17.20;1.00
3684;DHT22;1858;48.716;9.648;2022-09-19T13:33:58;17.40;1.00
3684;DHT22;1858;48.716;9.648;2022-09-19T13:39:53;17.30;1.00
3684;DHT22;1858;48.716;9.648;2022-09-19T13:41:50;17.40;1.00
3684;DHT22;1858;48.716;9.648;2022-09-19T13:47:22;17.60;1.00
3684;DHT22;1858;48.716;9.648;2022-09-19T13:56:31;17.30;1.00
3684;DHT22;1858;48.716;9.648;2022-09-19T13:59:30;17.30;1.00
3684;DHT22;1858;48.716;9.648;2022-09-19T14:05:00;17.20;1.00
3684;DHT22;1858;48.716;9.648;2022-09-19T14:10:22;17.20;1.00
3684;DHT22;1858;48.716;9.648;2022-09-19T14:13:02;17.10;1.00
3684;DHT22;1858;48.716;9.648;2022-09-19T14:24:11;17.20;1.00
3684;DHT22;1858;48.716;9.648;2022-09-19T14:35:32;17.00;1.00
3684;DHT22;1858;48.716;9.648;2022-09-19T14:38:25;16.90;1.00
3684;DHT22;1858;48.716;9.648;2022-09-19T14:49:57;16.40;1.00
3684;DHT22;1858;48.716;9.648;2022-09-19T14:52:27;16.50;1.00
3684;DHT22;1858;48.716;9.648;2022-09-19T14:55:05;16.40;1.00
3684;DHT22;1858;48.716;9.648;2022-09-19T14:57:47;16.40;1.00
3684;DHT22;1858;48.716;9.648;2022-09-19T15:00:23;16.30;1.00
3684;DHT22;1858;48.716;9.648;2022-09-19T15:02:52;15.90;1.00
3684;DHT22;1858;48.716;9.648;2022-09-19T15:05:40;15.50;1.00
3684;DHT22;1858;48.716;9.648;2022-09-19T15:08:29;15.40;1.00
3684;DHT22;1858;48.716;9.648;2022-09-19T15:11:04;15.20;8.60
3684;DHT22;1858;48.716;9.648;2022-09-19T15:13:33;15.00;99.90
3684;DHT22;1858;48.716;9.648;2022-09-19T15:16:05;14.90;99.90
3684;DHT22;1858;48.716;9.648;2022-09-19T15:18:46;14.80;99.90
3684;DHT22;1858;48.716;9.648;2022-09-19T15:24:04;14.40;99.90
3684;DHT22;1858;48.716;9.648;2022-09-19T15:29:29;14.20;99.90
3684;DHT22;1858;48.716;9.648;2022-09-19T15:32:26;14.10;99.90
3684;DHT22;1858;48.716;9.648;2022-09-19T15:35:14;14.00;99.90
3684;DHT22;1858;48.716;9.648;2022-09-19T15:37:45;14.00;99.90
3684;DHT22;1858;48.716;9.648;2022-09-19T15:40:22;14.10;99.90
3684;DHT22;1858;48.716;9.648;2022-09-19T15:42:46;14.30;99.90
3684;DHT22;1858;48.716;9.648;2022-09-19T15:51:05;14.70;99.90
3684;DHT22;1858;48.716;9.648;2022-09-19T15:53:35;14.70;99.90
3684;DHT22;1858;48.716;9.648;2022-09-19T15:59:00;14.60;99.90
3684;DHT22;1858;48.716;9.648;2022-09-19T16:01:31;14.60;99.90
3684;DHT22;1858;48.716;9.648;2022-09-19T16:04:12;14.60;99.90
3684;DHT22;1858;48.716;9.648;2022-09-19T16:07:00;14.40;99.90
3684;DHT22;1858;48.716;9.648;2022-09-19T16:10:32;14.30;99.90
3684;DHT22;1858;48.716;9.648;2022-09-19T16:14:57;14.00;99.90
3684;DHT22;1858;48.716;9.648;2022-09-19T16:23:13;13.60;99.90
3684;DHT22;1858;48.716;9.648;2022-09-19T16:25:53;13.50;1.00
3684;DHT22;1858;48.716;9.648;2022-09-19T16:28:43;13.40;1.00
3684;DHT22;1858;48.716;9.648;2022-09-19T16:31:20;13.40;1.00
3684;DHT22;1858;48.716;9.648;2022-09-19T16:34:43;13.30;1.00
3684;DHT22;1858;48.716;9.648;2022-09-19T16:39:47;13.30;1.00
3684;DHT22;1858;48.716;9.648;2022-09-19T16:47:34;13.20;1.00
3684;DHT22;1858;48.716;9.648;2022-09-19T16:50:03;13.20;1.00
3684;DHT22;1858;48.716;9.648;2022-09-19T16:52:34;13.10;1.00
3684;DHT22;1858;48.716;9.648;2022-09-19T16:55:41;13.10;1.00
3684;DHT22;1858;48.716;9.648;2022-09-19T16:57:44;13.00;1.00
3684;DHT22;1858;48.716;9.648;2022-09-19T17:00:17;12.90;1.00
3684;DHT22;1858;48.716;9.648;2022-09-19T17:02:47;12.80;1.00
3684;DHT22;1858;48.716;9.648;2022-09-19T17:05:21;12.80;1.00
3684;DHT22;1858;48.716;9.648;2022-09-19T17:07:54;12.60;1.00
3684;DHT22;1858;48.716;9.648;2022-09-19T17:13:15;12.50;1.00
3684;DHT22;1858;48.716;9.648;2022-09-19T17:15:55;12.40;1.00
3684;DHT22;1858;48.716;9.648;2022-09-19T17:18:25;12.30;1.00
3684;DHT22;1858;48.716;9.648;2022-09-19T17:20:57;12.30;1.00
3684;DHT22;1858;48.716;9.648;2022-09-19T17:23:44;12.20;5.60
3684;DHT22;1858;48.716;9.648;2022-09-19T17:26:13;12.10;41.20
3684;DHT22;1858;48.716;9.648;2022-09-19T17:28:42;12.00;99.90
3684;DHT22;1858;48.716;9.648;2022-09-19T17:31:12;12.00;99.90
3684;DHT22;1858;48.716;9.648;2022-09-19T17:33:41;12.00;99.90
3684;DHT22;1858;48.716;9.648;2022-09-19T17:36:10;12.00;99.90
3684;DHT22;1858;48.716;9.648;2022-09-19T17:38:40;12.10;99.90
3684;DHT22;1858;48.716;9.648;2022-09-19T17:43:57;12.20;99.90
3684;DHT22;1858;48.716;9.648;2022-09-19T17:46:26;12.30;99.90
3684;DHT22;1858;48.716;9.648;2022-09-19T17:48:54;12.40;99.90
3684;DHT22;1858;48.716;9.648;2022-09-19T17:51:23;12.40;99.90
3684;DHT22;1858;48.716;9.648;2022-09-19T17:53:51;12.40;99.90
3684;DHT22;1858;48.716;9.648;2022-09-19T17:56:22;12.40;99.90
3684;DHT22;1858;48.716;9.648;2022-09-19T18:01:47;12.40;99.90
3684;DHT22;1858;48.716;9.648;2022-09-19T18:04:34;12.40;99.90
3684;DHT22;1858;48.716;9.648;2022-09-19T18:07:02;12.40;99.90
3684;DHT22;1858;48.716;9.648;2022-09-19T18:09:31;12.40;99.90
3684;DHT22;1858;48.716;9.648;2022-09-19T18:12:01;12.40;99.90
3684;DHT22;1858;48.716;9.648;2022-09-19T18:14:30;12.30;99.90
3684;DHT22;1858;48.716;9.648;2022-09-19T18:16:59;12.20;99.90
3684;DHT22;1858;48.716;9.648;2022-09-19T18:19:27;12.20;99.90
3684;DHT22;1858;48.716;9.648;2022-09-19T18:21:58;12.20;99.90
3684;DHT22;1858;48.716;9.648;2022-09-19T18:24:26;12.20;99.90
3684;DHT22;1858;48.716;9.648;2022-09-19T18:26:55;12.20;99.90
3684;DHT22;1858;48.716;9.648;2022-09-19T18:29:23;12.20;99.90
3684;DHT22;1858;48.716;9.648;2022-09-19T18:31:52;12.20;99.90
3684;DHT22;1858;48.716;9.648;2022-09-19T18:34:21;12.10;99.90
3684;DHT22;1858;48.716;9.648;2022-09-19T18:36:49;12.10;71.30
3684;DHT22;1858;48.716;9.648;2022-09-19T18:39:18;12.00;34.70
3684;DHT22;1858;48.716;9.648;2022-09-19T18:41:48;11.90;40.40
3684;DHT22;1858;48.716;9.648;2022-09-19T18:44:16;11.90;96.50
3684;DHT22;1858;48.716;9.648;2022-09-19T18:46:45;11.80;80.60
3684;DHT22;1858;48.716;9.648;2022-09-19T18:49:14;11.70;99.90
3684;DHT22;1858;48.716;9.648;2022-09-19T18:51:43;11.70;99.90
3684;DHT22;1858;48.716;9.648;2022-09-19T18:54:12;11.70;99.90
3684;DHT22;1858;48.716;9.648;2022-09-19T18:56:40;11.60;99.90
3684;DHT22;1858;48.716;9.648;2022-09-19T18:59:09;11.60;99.90
3684;DHT22;1858;48.716;9.648;2022-09-19T19:01:40;11.50;99.90
3684;DHT22;1858;48.716;9.648;2022-09-19T19:04:09;11.50;99.90
3684;DHT22;1858;48.716;9.648;2022-09-19T19:06:37;11.40;99.90
3684;DHT22;1858;48.716;9.648;2022-09-19T19:09:06;11.40;99.90
3684;DHT22;1858;48.716;9.648;2022-09-19T19:11:35;11.40;99.90
3684;DHT22;1858;48.716;9.648;2022-09-19T19:14:05;11.40;99.90
3684;DHT22;1858;48.716;9.648;2022-09-19T19:16:34;11.40;99.90
3684;DHT22;1858;48.716;9.648;2022-09-19T19:19:04;11.30;99.90
3684;DHT22;1858;48.716;9.648;2022-09-19T19:21:35;11.40;99.90
3684;DHT22;1858;48.716;9.648;2022-09-19T19:24:07;11.50;99.90
3684;DHT22;1858;48.716;9.648;2022-09-19T19:26:36;11.40;99.90
3684;DHT22;1858;48.716;9.648;2022-09-19T19:29:05;11.40;99.90
3684;DHT22;1858;48.716;9.648;2022-09-19T19:31:41;11.40;99.90
3684;DHT22;1858;48.716;9.648;2022-09-19T19:37:18;11.50;99.90
3684;DHT22;1858;48.716;9.648;2022-09-19T19:39:47;11.50;99.90
3684;DHT22;1858;48.716;9.648;2022-09-19T19:42:15;11.50;99.90
3684;DHT22;1858;48.716;9.648;2022-09-19T19:44:43;11.50;1.00
3684;DHT22;1858;48.716;9.648;2022-09-19T19:47:12;11.50;1.00
3684;DHT22;1858;48.716;9.648;2022-09-19T19:49:40;11.60;1.00
3684;DHT22;1858;48.716;9.648;2022-09-19T19:52:09;11.60;1.00
3684;DHT22;1858;48.716;9.648;2022-09-19T19:54:37;11.70;1.00
3684;DHT22;1858;48.716;9.648;2022-09-19T19:57:06;11.70;99.90
3684;DHT22;1858;48.716;9.648;2022-09-19T19:59:34;11.70;99.90
3684;DHT22;1858;48.716;9.648;2022-09-19T20:02:03;11.80;99.90
3684;DHT22;1858;48.716;9.648;2022-09-19T20:04:31;11.80;99.90
3684;DHT22;1858;48.716;9.648;2022-09-19T20:07:00;11.80;99.90
3684;DHT22;1858;48.716;9.648;2022-09-19T20:09:28;11.70;99.90
3684;DHT22;1858;48.716;9.648;2022-09-19T20:11:57;11.70;99.90
3684;DHT22;1858;48.716;9.648;2022-09-19T20:14:25;11.70;99.90
3684;DHT22;1858;48.716;9.648;2022-09-19T20:16:54;11.70;99.90
3684;DHT22;1858;48.716;9.648;2022-09-19T20:19:23;11.60;99.90
3684;DHT22;1858;48.716;9.648;2022-09-19T20:21:52;11.60;99.90
3684;DHT22;1858;48.716;9.648;2022-09-19T20:24:23;11.60;99.90
3684;DHT22;1858;48.716;9.648;2022-09-19T20:26:53;11.60;99.90
3684;DHT22;1858;48.716;9.648;2022-09-19T20:29:23;11.70;99.90
3684;DHT22;1858;48.716;9.648;2022-09-19T20:31:52;11.70;99.90
3684;DHT22;1858;48.716;9.648;2022-09-19T20:34:21;11.70;99.90
3684;DHT22;1858;48.716;9.648;2022-09-19T20:36:50;11.60;99.90
3684;DHT22;1858;48.716;9.648;2022-09-19T20:39:19;11.50;99.90
3684;DHT22;1858;48.716;9.648;2022-09-19T20:41:57;11.50;99.90
3684;DHT22;1858;48.716;9.648;2022-09-19T20:44:25;11.50;99.90
3684;DHT22;1858;48.716;9.648;2022-09-19T20:46:54;11.30;99.90